sensor_id;sensor_type;location;lat;lon;timestamp;P1;durP1;ratioP1;P2;durP2;ratioP2
22603;SDS011;11469;49.024;8.246;2022-12-05T00:00:28;103.13;;;33.70;;
22603;SDS011;11469;49.024;8.246;2022-12-05T00:02:53;93.53;;;34.42;;
22603;SDS011;11469;49.024;8.246;2022-12-05T00:05:19;104.75;;;34.95;;
22603;SDS011;11469;49.024;8.246;2022-12-05T00:07:44;103.13;;;33.10;;
22603;SDS011;11469;49.024;8.246;2022-12-05T00:10:11;94.32;;;34.22;;
22603;SDS011;11469;49.024;8.246;2022-12-05T00:12:37;97.68;;;34.28;;
22603;SDS011;11469;49.024;8.246;2022-12-05T00:15:03;95.63;;;34.30;;
22603;SDS011;11469;49.024;8.246;2022-12-05T00:17:30;91.35;;;32.65;;
22603;SDS011;11469;49.024;8.246;2022-12-05T00:19:55;97.72;;;34.75;;
22603;SDS011;11469;49.024;8.246;2022-12-05T00:22:21;108.95;;;36.45;;
22603;SDS011;11469;49.024;8.246;2022-12-05T00:24:46;88.32;;;31.85;;
22603;SDS011;11469;49.024;8.246;2022-12-05T00:27:12;94.57;;;33.70;;
22603;SDS011;11469;49.024;8.246;2022-12-05T00:29:37;96.28;;;33.88;;
22603;SDS011;11469;49.024;8.246;2022-12-05T00:32:02;99.22;;;34.90;;
22603;SDS011;11469;49.024;8.246;2022-12-05T00:34:28;95.10;;;33.40;;
22603;SDS011;11469;49.024;8.246;2022-12-05T00:36:53;94.93;;;33.78;;
22603;SDS011;11469;49.024;8.246;2022-12-05T00:39:19;104.38;;;33.13;;
22603;SDS011;11469;49.024;8.246;2022-12-05T00:41:44;95.68;;;30.55;;
22603;SDS011;11469;49.024;8.246;2022-12-05T00:44:10;101.57;;;34.67;;
22603;SDS011;11469;49.024;8.246;2022-12-05T00:46:38;103.10;;;35.45;;
22603;SDS011;11469;49.024;8.246;2022-12-05T00:49:04;105.75;;;35.75;;
22603;SDS011;11469;49.024;8.246;2022-12-05T00:51:32;96.38;;;34.38;;
22603;SDS011;11469;49.024;8.246;2022-12-05T00:54:00;112.22;;;38.05;;
22603;SDS011;11469;49.024;8.246;2022-12-05T00:56:28;122.15;;;35.83;;
22603;SDS011;11469;49.024;8.246;2022-12-05T00:58:55;101.95;;;34.47;;
22603;SDS011;11469;49.024;8.246;2022-12-05T01:01:22;105.75;;;33.10;;
22603;SDS011;11469;49.024;8.246;2022-12-05T01:03:53;105.35;;;35.35;;
22603;SDS011;11469;49.024;8.246;2022-12-05T01:06:21;141.20;;;37.22;;
22603;SDS011;11469;49.024;8.246;2022-12-05T01:08:48;108.72;;;35.72;;
22603;SDS011;11469;49.024;8.246;2022-12-05T01:11:15;118.45;;;37.08;;
22603;SDS011;11469;49.024;8.246;2022-12-05T01:13:41;102.78;;;33.85;;
22603;SDS011;11469;49.024;8.246;2022-12-05T01:16:12;106.65;;;36.47;;
22603;SDS011;11469;49.024;8.246;2022-12-05T01:18:39;99.30;;;33.78;;
22603;SDS011;11469;49.024;8.246;2022-12-05T01:21:04;125.88;;;35.08;;
22603;SDS011;11469;49.024;8.246;2022-12-05T01:23:30;119.25;;;36.35;;
22603;SDS011;11469;49.024;8.246;2022-12-05T01:25:55;107.93;;;36.30;;
22603;SDS011;11469;49.024;8.246;2022-12-05T01:28:21;120.10;;;37.47;;
22603;SDS011;11469;49.024;8.246;2022-12-05T01:30:47;105.38;;;36.42;;
22603;SDS011;11469;49.024;8.246;2022-12-05T01:33:14;107.07;;;35.70;;
22603;SDS011;11469;49.024;8.246;2022-12-05T01:35:40;109.15;;;35.97;;
22603;SDS011;11469;49.024;8.246;2022-12-05T01:38:06;104.00;;;35.78;;
22603;SDS011;11469;49.024;8.246;2022-12-05T01:40:33;111.90;;;37.70;;
22603;SDS011;11469;49.024;8.246;2022-12-05T01:43:02;114.25;;;35.67;;
22603;SDS011;11469;49.024;8.246;2022-12-05T01:45:35;102.00;;;33.20;;
22603;SDS011;11469;49.024;8.246;2022-12-05T01:48:05;106.05;;;32.80;;
22603;SDS011;11469;49.024;8.246;2022-12-05T01:50:35;95.53;;;33.30;;
22603;SDS011;11469;49.024;8.246;2022-12-05T01:53:01;96.00;;;31.98;;
22603;SDS011;11469;49.024;8.246;2022-12-05T01:55:28;107.38;;;32.20;;
22603;SDS011;11469;49.024;8.246;2022-12-05T01:57:54;99.78;;;33.15;;
22603;SDS011;11469;49.024;8.246;2022-12-05T02:00:21;101.18;;;32.58;;
22603;SDS011;11469;49.024;8.246;2022-12-05T02:02:51;88.22;;;30.90;;
22603;SDS011;11469;49.024;8.246;2022-12-05T02:05:28;102.85;;;32.75;;
22603;SDS011;11469;49.024;8.246;2022-12-05T02:08:00;94.93;;;32.22;;
22603;SDS011;11469;49.024;8.246;2022-12-05T02:10:29;105.85;;;33.15;;
22603;SDS011;11469;49.024;8.246;2022-12-05T02:13:05;118.93;;;35.53;;
22603;SDS011;11469;49.024;8.246;2022-12-05T02:15:39;97.72;;;32.35;;
22603;SDS011;11469;49.024;8.246;2022-12-05T02:30:17;112.63;;;33.70;;
22603;SDS011;11469;49.024;8.246;2022-12-05T02:35:51;114.03;;;33.55;;
22603;SDS011;11469;49.024;8.246;2022-12-05T02:38:35;112.70;;;35.05;;
22603;SDS011;11469;49.024;8.246;2022-12-05T02:43:48;112.95;;;32.42;;
22603;SDS011;11469;49.024;8.246;2022-12-05T02:46:19;115.60;;;32.78;;
22603;SDS011;11469;49.024;8.246;2022-12-05T02:48:46;110.95;;;33.38;;
22603;SDS011;11469;49.024;8.246;2022-12-05T02:51:16;115.82;;;35.00;;
22603;SDS011;11469;49.024;8.246;2022-12-05T02:53:43;118.43;;;34.72;;
22603;SDS011;11469;49.024;8.246;2022-12-05T02:56:12;118.97;;;35.28;;
22603;SDS011;11469;49.024;8.246;2022-12-05T02:58:40;106.65;;;33.28;;
22603;SDS011;11469;49.024;8.246;2022-12-05T03:01:22;117.07;;;34.60;;
22603;SDS011;11469;49.024;8.246;2022-12-05T03:03:49;120.30;;;34.08;;
22603;SDS011;11469;49.024;8.246;2022-12-05T03:06:19;103.47;;;32.60;;
22603;SDS011;11469;49.024;8.246;2022-12-05T03:09:12;109.75;;;32.88;;
22603;SDS011;11469;49.024;8.246;2022-12-05T03:11:47;99.90;;;31.27;;
22603;SDS011;11469;49.024;8.246;2022-12-05T03:14:24;95.50;;;31.40;;
22603;SDS011;11469;49.024;8.246;2022-12-05T03:17:00;86.47;;;29.70;;
22603;SDS011;11469;49.024;8.246;2022-12-05T03:19:31;88.53;;;30.58;;
22603;SDS011;11469;49.024;8.246;2022-12-05T03:22:20;99.72;;;30.90;;
22603;SDS011;11469;49.024;8.246;2022-12-05T03:25:09;93.30;;;32.67;;
22603;SDS011;11469;49.024;8.246;2022-12-05T03:30:17;94.95;;;30.83;;
22603;SDS011;11469;49.024;8.246;2022-12-05T03:40:39;91.68;;;30.58;;
22603;SDS011;11469;49.024;8.246;2022-12-05T03:43:25;100.47;;;34.63;;
22603;SDS011;11469;49.024;8.246;2022-12-05T03:46:23;91.63;;;30.80;;
22603;SDS011;11469;49.024;8.246;2022-12-05T03:51:16;75.75;;;28.80;;
22603;SDS011;11469;49.024;8.246;2022-12-05T03:53:57;78.82;;;29.35;;
22603;SDS011;11469;49.024;8.246;2022-12-05T03:56:30;89.40;;;29.42;;
22603;SDS011;11469;49.024;8.246;2022-12-05T04:01:54;88.15;;;29.48;;
22603;SDS011;11469;49.024;8.246;2022-12-05T04:04:30;88.22;;;29.60;;
22603;SDS011;11469;49.024;8.246;2022-12-05T04:07:00;92.90;;;31.20;;
22603;SDS011;11469;49.024;8.246;2022-12-05T04:09:30;85.50;;;30.25;;
22603;SDS011;11469;49.024;8.246;2022-12-05T04:12:02;77.05;;;28.15;;
22603;SDS011;11469;49.024;8.246;2022-12-05T04:17:10;77.93;;;28.45;;
22603;SDS011;11469;49.024;8.246;2022-12-05T04:19:55;83.25;;;30.17;;
22603;SDS011;11469;49.024;8.246;2022-12-05T04:22:45;79.93;;;28.98;;
22603;SDS011;11469;49.024;8.246;2022-12-05T04:25:12;80.53;;;29.83;;
22603;SDS011;11469;49.024;8.246;2022-12-05T04:30:57;86.85;;;29.70;;
22603;SDS011;11469;49.024;8.246;2022-12-05T04:36:27;83.75;;;30.38;;
22603;SDS011;11469;49.024;8.246;2022-12-05T04:38:58;79.22;;;30.23;;
22603;SDS011;11469;49.024;8.246;2022-12-05T04:41:54;71.68;;;27.85;;
22603;SDS011;11469;49.024;8.246;2022-12-05T04:44:26;78.88;;;29.58;;
22603;SDS011;11469;49.024;8.246;2022-12-05T04:46:54;80.20;;;29.10;;
22603;SDS011;11469;49.024;8.246;2022-12-05T04:49:24;69.07;;;27.17;;
22603;SDS011;11469;49.024;8.246;2022-12-05T04:51:56;81.18;;;29.40;;
22603;SDS011;11469;49.024;8.246;2022-12-05T04:54:27;78.53;;;27.80;;
22603;SDS011;11469;49.024;8.246;2022-12-05T04:56:58;60.28;;;24.92;;
22603;SDS011;11469;49.024;8.246;2022-12-05T04:59:29;67.70;;;28.02;;
22603;SDS011;11469;49.024;8.246;2022-12-05T05:01:55;72.43;;;28.38;;
22603;SDS011;11469;49.024;8.246;2022-12-05T05:04:31;66.18;;;26.50;;
22603;SDS011;11469;49.024;8.246;2022-12-05T05:07:05;72.18;;;27.05;;
22603;SDS011;11469;49.024;8.246;2022-12-05T05:09:31;71.35;;;27.90;;
22603;SDS011;11469;49.024;8.246;2022-12-05T05:11:57;68.88;;;28.00;;
22603;SDS011;11469;49.024;8.246;2022-12-05T05:14:23;78.00;;;27.60;;
22603;SDS011;11469;49.024;8.246;2022-12-05T05:16:48;69.97;;;29.27;;
22603;SDS011;11469;49.024;8.246;2022-12-05T05:19:13;65.80;;;28.35;;
22603;SDS011;11469;49.024;8.246;2022-12-05T05:21:40;69.32;;;27.40;;
22603;SDS011;11469;49.024;8.246;2022-12-05T05:24:06;72.38;;;28.25;;
22603;SDS011;11469;49.024;8.246;2022-12-05T05:26:34;74.95;;;27.67;;
22603;SDS011;11469;49.024;8.246;2022-12-05T05:29:02;65.28;;;27.75;;
22603;SDS011;11469;49.024;8.246;2022-12-05T05:31:28;64.72;;;27.40;;
22603;SDS011;11469;49.024;8.246;2022-12-05T05:33:54;68.28;;;27.42;;
22603;SDS011;11469;49.024;8.246;2022-12-05T05:36:21;68.25;;;26.05;;
22603;SDS011;11469;49.024;8.246;2022-12-05T05:38:48;66.70;;;25.95;;
22603;SDS011;11469;49.024;8.246;2022-12-05T05:41:16;71.55;;;28.42;;
22603;SDS011;11469;49.024;8.246;2022-12-05T05:43:43;68.75;;;27.08;;
22603;SDS011;11469;49.024;8.246;2022-12-05T05:46:10;70.63;;;26.65;;
22603;SDS011;11469;49.024;8.246;2022-12-05T05:48:36;63.22;;;27.45;;
22603;SDS011;11469;49.024;8.246;2022-12-05T05:51:02;72.32;;;28.70;;
22603;SDS011;11469;49.024;8.246;2022-12-05T05:53:29;64.55;;;26.52;;
22603;SDS011;11469;49.024;8.246;2022-12-05T05:55:54;64.68;;;27.15;;
22603;SDS011;11469;49.024;8.246;2022-12-05T05:58:20;70.47;;;28.15;;
22603;SDS011;11469;49.024;8.246;2022-12-05T06:00:45;74.28;;;28.02;;
22603;SDS011;11469;49.024;8.246;2022-12-05T06:03:11;67.63;;;28.45;;
22603;SDS011;11469;49.024;8.246;2022-12-05T06:05:36;65.45;;;27.15;;
22603;SDS011;11469;49.024;8.246;2022-12-05T06:08:02;66.38;;;27.88;;
22603;SDS011;11469;49.024;8.246;2022-12-05T06:10:28;66.40;;;25.98;;
22603;SDS011;11469;49.024;8.246;2022-12-05T06:12:56;64.00;;;27.42;;
22603;SDS011;11469;49.024;8.246;2022-12-05T06:15:22;65.53;;;27.60;;
22603;SDS011;11469;49.024;8.246;2022-12-05T06:17:48;62.38;;;26.42;;
22603;SDS011;11469;49.024;8.246;2022-12-05T06:20:13;68.03;;;27.50;;
22603;SDS011;11469;49.024;8.246;2022-12-05T06:22:38;65.13;;;27.63;;
22603;SDS011;11469;49.024;8.246;2022-12-05T06:25:04;63.55;;;26.25;;
22603;SDS011;11469;49.024;8.246;2022-12-05T06:27:30;69.35;;;29.38;;
22603;SDS011;11469;49.024;8.246;2022-12-05T06:29:57;60.90;;;26.05;;
22603;SDS011;11469;49.024;8.246;2022-12-05T06:32:22;65.00;;;26.50;;
22603;SDS011;11469;49.024;8.246;2022-12-05T06:34:47;59.22;;;25.75;;
22603;SDS011;11469;49.024;8.246;2022-12-05T06:37:13;67.65;;;27.00;;
22603;SDS011;11469;49.024;8.246;2022-12-05T06:39:38;62.65;;;26.50;;
22603;SDS011;11469;49.024;8.246;2022-12-05T06:42:04;59.92;;;26.80;;
22603;SDS011;11469;49.024;8.246;2022-12-05T06:44:29;68.07;;;27.65;;
22603;SDS011;11469;49.024;8.246;2022-12-05T06:46:55;62.97;;;26.48;;
22603;SDS011;11469;49.024;8.246;2022-12-05T06:49:21;57.60;;;24.88;;
22603;SDS011;11469;49.024;8.246;2022-12-05T06:51:47;59.60;;;26.45;;
22603;SDS011;11469;49.024;8.246;2022-12-05T06:54:12;69.53;;;27.35;;
22603;SDS011;11469;49.024;8.246;2022-12-05T06:56:38;62.20;;;26.23;;
22603;SDS011;11469;49.024;8.246;2022-12-05T06:59:04;68.32;;;27.40;;
22603;SDS011;11469;49.024;8.246;2022-12-05T07:01:30;63.10;;;26.77;;
22603;SDS011;11469;49.024;8.246;2022-12-05T07:04:15;61.83;;;26.40;;
22603;SDS011;11469;49.024;8.246;2022-12-05T07:06:51;64.00;;;25.83;;
22603;SDS011;11469;49.024;8.246;2022-12-05T07:09:19;67.10;;;28.35;;
22603;SDS011;11469;49.024;8.246;2022-12-05T07:12:10;65.80;;;26.73;;
22603;SDS011;11469;49.024;8.246;2022-12-05T07:14:36;62.28;;;26.67;;
22603;SDS011;11469;49.024;8.246;2022-12-05T07:17:01;62.58;;;26.83;;
22603;SDS011;11469;49.024;8.246;2022-12-05T07:19:27;61.90;;;27.17;;
22603;SDS011;11469;49.024;8.246;2022-12-05T07:21:52;72.30;;;28.58;;
22603;SDS011;11469;49.024;8.246;2022-12-05T07:24:18;65.75;;;27.55;;
22603;SDS011;11469;49.024;8.246;2022-12-05T07:26:43;64.75;;;27.17;;
22603;SDS011;11469;49.024;8.246;2022-12-05T07:29:09;65.35;;;27.80;;
22603;SDS011;11469;49.024;8.246;2022-12-05T07:31:34;63.72;;;26.38;;
22603;SDS011;11469;49.024;8.246;2022-12-05T07:34:01;61.17;;;27.50;;
22603;SDS011;11469;49.024;8.246;2022-12-05T07:36:26;62.20;;;26.15;;
22603;SDS011;11469;49.024;8.246;2022-12-05T07:38:55;67.50;;;28.52;;
22603;SDS011;11469;49.024;8.246;2022-12-05T07:41:23;61.17;;;27.20;;
22603;SDS011;11469;49.024;8.246;2022-12-05T07:43:51;66.50;;;26.85;;
22603;SDS011;11469;49.024;8.246;2022-12-05T07:46:17;69.53;;;29.60;;
22603;SDS011;11469;49.024;8.246;2022-12-05T07:48:43;64.15;;;27.95;;
22603;SDS011;11469;49.024;8.246;2022-12-05T07:51:08;63.92;;;26.40;;
22603;SDS011;11469;49.024;8.246;2022-12-05T07:53:35;60.97;;;26.88;;
22603;SDS011;11469;49.024;8.246;2022-12-05T07:56:02;65.95;;;27.48;;
22603;SDS011;11469;49.024;8.246;2022-12-05T07:58:30;67.40;;;28.08;;
22603;SDS011;11469;49.024;8.246;2022-12-05T08:00:56;71.00;;;30.95;;
22603;SDS011;11469;49.024;8.246;2022-12-05T08:03:29;63.20;;;28.65;;
22603;SDS011;11469;49.024;8.246;2022-12-05T08:05:54;61.88;;;28.05;;
22603;SDS011;11469;49.024;8.246;2022-12-05T08:08:20;60.55;;;26.10;;
22603;SDS011;11469;49.024;8.246;2022-12-05T08:10:45;62.88;;;28.75;;
22603;SDS011;11469;49.024;8.246;2022-12-05T08:13:10;60.53;;;27.60;;
22603;SDS011;11469;49.024;8.246;2022-12-05T08:15:36;63.90;;;28.67;;
22603;SDS011;11469;49.024;8.246;2022-12-05T08:18:01;57.85;;;26.50;;
22603;SDS011;11469;49.024;8.246;2022-12-05T08:20:27;64.60;;;26.42;;
22603;SDS011;11469;49.024;8.246;2022-12-05T08:22:52;66.03;;;27.85;;
22603;SDS011;11469;49.024;8.246;2022-12-05T08:25:18;67.75;;;28.05;;
22603;SDS011;11469;49.024;8.246;2022-12-05T08:27:44;61.95;;;28.60;;
22603;SDS011;11469;49.024;8.246;2022-12-05T08:30:09;65.70;;;28.13;;
22603;SDS011;11469;49.024;8.246;2022-12-05T08:32:35;62.95;;;28.80;;
22603;SDS011;11469;49.024;8.246;2022-12-05T08:35:00;69.78;;;32.00;;
22603;SDS011;11469;49.024;8.246;2022-12-05T08:37:25;60.97;;;26.73;;
22603;SDS011;11469;49.024;8.246;2022-12-05T08:39:51;60.28;;;29.20;;
22603;SDS011;11469;49.024;8.246;2022-12-05T08:42:16;70.63;;;30.40;;
22603;SDS011;11469;49.024;8.246;2022-12-05T08:44:41;71.70;;;29.98;;
22603;SDS011;11469;49.024;8.246;2022-12-05T08:47:07;72.10;;;30.63;;
22603;SDS011;11469;49.024;8.246;2022-12-05T08:49:32;62.90;;;28.27;;
22603;SDS011;11469;49.024;8.246;2022-12-05T08:51:57;63.92;;;27.30;;
22603;SDS011;11469;49.024;8.246;2022-12-05T08:54:23;63.22;;;28.77;;
22603;SDS011;11469;49.024;8.246;2022-12-05T08:56:51;61.72;;;27.65;;
22603;SDS011;11469;49.024;8.246;2022-12-05T08:59:17;66.32;;;28.70;;
22603;SDS011;11469;49.024;8.246;2022-12-05T09:01:43;58.85;;;26.33;;
22603;SDS011;11469;49.024;8.246;2022-12-05T09:04:09;59.92;;;26.77;;
22603;SDS011;11469;49.024;8.246;2022-12-05T09:06:36;64.95;;;27.17;;
22603;SDS011;11469;49.024;8.246;2022-12-05T09:09:04;59.50;;;26.67;;
22603;SDS011;11469;49.024;8.246;2022-12-05T09:11:35;57.25;;;26.50;;
22603;SDS011;11469;49.024;8.246;2022-12-05T09:14:05;61.92;;;28.02;;
22603;SDS011;11469;49.024;8.246;2022-12-05T09:16:31;58.25;;;27.38;;
22603;SDS011;11469;49.024;8.246;2022-12-05T09:18:58;63.05;;;28.08;;
22603;SDS011;11469;49.024;8.246;2022-12-05T09:21:25;56.08;;;25.33;;
22603;SDS011;11469;49.024;8.246;2022-12-05T09:23:52;62.55;;;27.42;;
22603;SDS011;11469;49.024;8.246;2022-12-05T09:26:19;55.13;;;24.70;;
22603;SDS011;11469;49.024;8.246;2022-12-05T09:28:47;57.13;;;27.15;;
22603;SDS011;11469;49.024;8.246;2022-12-05T09:31:14;54.20;;;26.83;;
22603;SDS011;11469;49.024;8.246;2022-12-05T09:33:41;56.63;;;26.92;;
22603;SDS011;11469;49.024;8.246;2022-12-05T09:36:12;63.58;;;28.58;;
22603;SDS011;11469;49.024;8.246;2022-12-05T09:38:39;51.13;;;25.40;;
22603;SDS011;11469;49.024;8.246;2022-12-05T09:41:12;59.47;;;26.70;;
22603;SDS011;11469;49.024;8.246;2022-12-05T09:43:48;56.45;;;26.70;;
22603;SDS011;11469;49.024;8.246;2022-12-05T09:49:01;57.42;;;25.83;;
22603;SDS011;11469;49.024;8.246;2022-12-05T09:51:29;65.97;;;30.10;;
22603;SDS011;11469;49.024;8.246;2022-12-05T09:53:56;59.25;;;27.25;;
22603;SDS011;11469;49.024;8.246;2022-12-05T09:56:26;63.60;;;27.52;;
22603;SDS011;11469;49.024;8.246;2022-12-05T09:58:54;55.25;;;26.63;;
22603;SDS011;11469;49.024;8.246;2022-12-05T10:15:12;57.30;;;26.88;;
22603;SDS011;11469;49.024;8.246;2022-12-05T10:18:01;55.97;;;26.52;;
22603;SDS011;11469;49.024;8.246;2022-12-05T10:20:46;53.78;;;25.58;;
22603;SDS011;11469;49.024;8.246;2022-12-05T10:23:22;55.80;;;25.42;;
22603;SDS011;11469;49.024;8.246;2022-12-05T10:25:55;50.15;;;24.90;;
22603;SDS011;11469;49.024;8.246;2022-12-05T10:31:28;53.28;;;25.35;;
22603;SDS011;11469;49.024;8.246;2022-12-05T10:34:43;54.88;;;25.83;;
22603;SDS011;11469;49.024;8.246;2022-12-05T10:37:15;55.15;;;25.60;;
22603;SDS011;11469;49.024;8.246;2022-12-05T10:39:42;53.65;;;25.77;;
22603;SDS011;11469;49.024;8.246;2022-12-05T10:42:17;49.03;;;24.63;;
22603;SDS011;11469;49.024;8.246;2022-12-05T10:44:49;71.07;;;33.35;;
22603;SDS011;11469;49.024;8.246;2022-12-05T10:47:23;109.97;;;45.25;;
22603;SDS011;11469;49.024;8.246;2022-12-05T10:49:48;126.93;;;50.38;;
22603;SDS011;11469;49.024;8.246;2022-12-05T10:52:14;53.53;;;25.42;;
22603;SDS011;11469;49.024;8.246;2022-12-05T10:54:45;45.65;;;24.02;;
22603;SDS011;11469;49.024;8.246;2022-12-05T10:57:24;48.90;;;23.60;;
22603;SDS011;11469;49.024;8.246;2022-12-05T10:59:51;43.15;;;21.85;;
22603;SDS011;11469;49.024;8.246;2022-12-05T11:02:25;42.08;;;22.92;;
22603;SDS011;11469;49.024;8.246;2022-12-05T11:04:53;45.80;;;22.85;;
22603;SDS011;11469;49.024;8.246;2022-12-05T11:07:29;50.53;;;22.25;;
22603;SDS011;11469;49.024;8.246;2022-12-05T11:10:18;41.40;;;22.75;;
22603;SDS011;11469;49.024;8.246;2022-12-05T11:12:57;48.30;;;22.42;;
22603;SDS011;11469;49.024;8.246;2022-12-05T11:15:25;39.45;;;21.13;;
22603;SDS011;11469;49.024;8.246;2022-12-05T11:17:52;44.55;;;21.75;;
22603;SDS011;11469;49.024;8.246;2022-12-05T11:22:49;40.58;;;20.15;;
22603;SDS011;11469;49.024;8.246;2022-12-05T11:25:23;36.78;;;19.08;;
22603;SDS011;11469;49.024;8.246;2022-12-05T11:27:52;37.80;;;19.40;;
22603;SDS011;11469;49.024;8.246;2022-12-05T11:30:37;38.40;;;20.65;;
22603;SDS011;11469;49.024;8.246;2022-12-05T11:33:19;40.33;;;20.10;;
22603;SDS011;11469;49.024;8.246;2022-12-05T11:35:47;37.58;;;19.33;;
22603;SDS011;11469;49.024;8.246;2022-12-05T11:38:14;35.47;;;19.88;;
22603;SDS011;11469;49.024;8.246;2022-12-05T11:49:49;31.75;;;17.67;;
22603;SDS011;11469;49.024;8.246;2022-12-05T12:00:14;33.83;;;16.15;;
22603;SDS011;11469;49.024;8.246;2022-12-05T12:07:53;25.50;;;14.10;;
22603;SDS011;11469;49.024;8.246;2022-12-05T12:13:23;23.73;;;12.88;;
22603;SDS011;11469;49.024;8.246;2022-12-05T12:16:04;22.70;;;12.68;;
22603;SDS011;11469;49.024;8.246;2022-12-05T12:21:17;21.50;;;12.05;;
22603;SDS011;11469;49.024;8.246;2022-12-05T12:24:06;25.20;;;12.27;;
22603;SDS011;11469;49.024;8.246;2022-12-05T12:26:48;19.85;;;11.93;;
22603;SDS011;11469;49.024;8.246;2022-12-05T12:29:38;21.15;;;11.23;;
22603;SDS011;11469;49.024;8.246;2022-12-05T12:38:44;18.52;;;10.48;;
22603;SDS011;11469;49.024;8.246;2022-12-05T12:46:59;18.85;;;10.05;;
22603;SDS011;11469;49.024;8.246;2022-12-05T12:51:53;19.17;;;11.18;;
22603;SDS011;11469;49.024;8.246;2022-12-05T13:04:49;21.00;;;10.18;;
22603;SDS011;11469;49.024;8.246;2022-12-05T13:07:21;18.48;;;10.57;;
22603;SDS011;11469;49.024;8.246;2022-12-05T13:09:55;22.10;;;10.80;;
22603;SDS011;11469;49.024;8.246;2022-12-05T13:12:28;16.27;;;9.82;;
22603;SDS011;11469;49.024;8.246;2022-12-05T13:15:57;23.98;;;10.20;;
22603;SDS011;11469;49.024;8.246;2022-12-05T13:18:05;19.75;;;9.40;;
22603;SDS011;11469;49.024;8.246;2022-12-05T13:20:36;8.32;;;5.13;;
22603;SDS011;11469;49.024;8.246;2022-12-05T13:23:04;10.57;;;5.78;;
22603;SDS011;11469;49.024;8.246;2022-12-05T13:25:32;7.10;;;4.72;;
22603;SDS011;11469;49.024;8.246;2022-12-05T13:28:04;10.75;;;4.30;;
22603;SDS011;11469;49.024;8.246;2022-12-05T13:30:32;12.02;;;3.53;;
22603;SDS011;11469;49.024;8.246;2022-12-05T13:33:18;3.22;;;2.28;;
22603;SDS011;11469;49.024;8.246;2022-12-05T13:35:49;5.28;;;2.80;;
22603;SDS011;11469;49.024;8.246;2022-12-05T13:38:39;5.43;;;3.15;;
22603;SDS011;11469;49.024;8.246;2022-12-05T13:44:32;13.65;;;7.05;;
22603;SDS011;11469;49.024;8.246;2022-12-05T13:47:20;5.78;;;2.90;;
22603;SDS011;11469;49.024;8.246;2022-12-05T13:49:49;8.35;;;4.97;;
22603;SDS011;11469;49.024;8.246;2022-12-05T13:52:21;5.70;;;3.60;;
22603;SDS011;11469;49.024;8.246;2022-12-05T13:55:01;5.65;;;3.58;;
22603;SDS011;11469;49.024;8.246;2022-12-05T14:00:18;8.23;;;4.43;;
22603;SDS011;11469;49.024;8.246;2022-12-05T14:02:54;7.93;;;3.10;;
22603;SDS011;11469;49.024;8.246;2022-12-05T14:05:40;4.75;;;2.00;;
22603;SDS011;11469;49.024;8.246;2022-12-05T14:15:39;1.83;;;1.35;;
22603;SDS011;11469;49.024;8.246;2022-12-05T14:18:12;3.22;;;1.92;;
22603;SDS011;11469;49.024;8.246;2022-12-05T14:28:43;3.40;;;2.00;;
22603;SDS011;11469;49.024;8.246;2022-12-05T14:31:37;5.90;;;2.15;;
22603;SDS011;11469;49.024;8.246;2022-12-05T14:36:38;4.57;;;2.95;;
22603;SDS011;11469;49.024;8.246;2022-12-05T14:42:02;2.97;;;2.00;;
22603;SDS011;11469;49.024;8.246;2022-12-05T14:44:32;3.97;;;1.83;;
22603;SDS011;11469;49.024;8.246;2022-12-05T14:46:58;4.32;;;1.80;;
22603;SDS011;11469;49.024;8.246;2022-12-05T14:52:00;4.78;;;2.67;;
22603;SDS011;11469;49.024;8.246;2022-12-05T14:54:34;4.45;;;2.38;;
22603;SDS011;11469;49.024;8.246;2022-12-05T14:57:02;75.18;;;23.58;;
22603;SDS011;11469;49.024;8.246;2022-12-05T14:59:50;127.05;;;37.08;;
22603;SDS011;11469;49.024;8.246;2022-12-05T15:02:53;57.92;;;19.50;;
22603;SDS011;11469;49.024;8.246;2022-12-05T15:05:23;38.15;;;14.10;;
22603;SDS011;11469;49.024;8.246;2022-12-05T15:07:52;46.95;;;15.77;;
22603;SDS011;11469;49.024;8.246;2022-12-05T15:10:36;46.40;;;16.27;;
22603;SDS011;11469;49.024;8.246;2022-12-05T15:13:04;26.52;;;9.82;;
22603;SDS011;11469;49.024;8.246;2022-12-05T15:15:44;21.65;;;9.60;;
22603;SDS011;11469;49.024;8.246;2022-12-05T15:18:23;26.17;;;10.48;;
22603;SDS011;11469;49.024;8.246;2022-12-05T15:21:03;16.13;;;8.60;;
22603;SDS011;11469;49.024;8.246;2022-12-05T15:26:39;14.25;;;6.88;;
22603;SDS011;11469;49.024;8.246;2022-12-05T15:37:57;12.88;;;7.30;;
22603;SDS011;11469;49.024;8.246;2022-12-05T15:40:12;14.65;;;7.43;;
22603;SDS011;11469;49.024;8.246;2022-12-05T15:42:51;13.77;;;7.63;;
22603;SDS011;11469;49.024;8.246;2022-12-05T15:45:22;13.32;;;6.88;;
22603;SDS011;11469;49.024;8.246;2022-12-05T15:47:53;13.85;;;6.22;;
22603;SDS011;11469;49.024;8.246;2022-12-05T15:50:37;9.25;;;6.18;;
22603;SDS011;11469;49.024;8.246;2022-12-05T15:56:09;10.88;;;5.88;;
22603;SDS011;11469;49.024;8.246;2022-12-05T15:58:45;8.82;;;5.80;;
22603;SDS011;11469;49.024;8.246;2022-12-05T16:01:19;8.32;;;5.03;;
22603;SDS011;11469;49.024;8.246;2022-12-05T16:08:54;5.70;;;3.72;;
22603;SDS011;11469;49.024;8.246;2022-12-05T16:11:21;5.65;;;3.25;;
22603;SDS011;11469;49.024;8.246;2022-12-05T16:13:51;4.72;;;2.88;;
22603;SDS011;11469;49.024;8.246;2022-12-05T16:16:21;7.57;;;4.30;;
22603;SDS011;11469;49.024;8.246;2022-12-05T16:18:52;7.78;;;5.15;;
22603;SDS011;11469;49.024;8.246;2022-12-05T16:21:29;18.40;;;9.30;;
22603;SDS011;11469;49.024;8.246;2022-12-05T16:23:59;40.65;;;20.50;;
22603;SDS011;11469;49.024;8.246;2022-12-05T16:26:29;34.78;;;18.02;;
22603;SDS011;11469;49.024;8.246;2022-12-05T16:28:59;35.70;;;16.02;;
22603;SDS011;11469;49.024;8.246;2022-12-05T16:31:29;25.98;;;13.70;;
22603;SDS011;11469;49.024;8.246;2022-12-05T16:34:04;34.17;;;14.38;;
22603;SDS011;11469;49.024;8.246;2022-12-05T16:36:32;28.10;;;13.77;;
22603;SDS011;11469;49.024;8.246;2022-12-05T16:39:11;34.35;;;16.05;;
22603;SDS011;11469;49.024;8.246;2022-12-05T16:41:39;44.28;;;20.17;;
22603;SDS011;11469;49.024;8.246;2022-12-05T16:44:07;33.97;;;16.67;;
22603;SDS011;11469;49.024;8.246;2022-12-05T16:46:52;30.83;;;14.65;;
22603;SDS011;11469;49.024;8.246;2022-12-05T16:49:34;31.50;;;15.23;;
22603;SDS011;11469;49.024;8.246;2022-12-05T16:52:21;25.65;;;12.13;;
22603;SDS011;11469;49.024;8.246;2022-12-05T16:54:47;27.00;;;14.02;;
22603;SDS011;11469;49.024;8.246;2022-12-05T16:57:14;20.52;;;11.68;;
22603;SDS011;11469;49.024;8.246;2022-12-05T16:59:41;19.27;;;11.90;;
22603;SDS011;11469;49.024;8.246;2022-12-05T17:02:11;30.90;;;18.45;;
22603;SDS011;11469;49.024;8.246;2022-12-05T17:04:38;20.35;;;12.73;;
22603;SDS011;11469;49.024;8.246;2022-12-05T17:07:04;14.52;;;9.88;;
22603;SDS011;11469;49.024;8.246;2022-12-05T17:09:29;20.92;;;13.70;;
22603;SDS011;11469;49.024;8.246;2022-12-05T17:11:58;15.88;;;8.93;;
22603;SDS011;11469;49.024;8.246;2022-12-05T17:14:28;14.90;;;9.77;;
22603;SDS011;11469;49.024;8.246;2022-12-05T17:16:53;16.05;;;10.48;;
22603;SDS011;11469;49.024;8.246;2022-12-05T17:19:18;13.55;;;8.77;;
22603;SDS011;11469;49.024;8.246;2022-12-05T17:21:44;7.45;;;4.80;;
22603;SDS011;11469;49.024;8.246;2022-12-05T17:24:11;11.20;;;7.03;;
22603;SDS011;11469;49.024;8.246;2022-12-05T17:26:41;13.35;;;9.32;;
22603;SDS011;11469;49.024;8.246;2022-12-05T17:29:07;13.85;;;8.57;;